Julian, CA

11:43 AM PST on December 07, 2016 (GMT -0800)
LSR Ranchita | | Change Station

Elev 4724 ft 33.23 °N, 116.50 °W | Updated 13 minutes ago

Clear
Clear
51.1 °F
Feels Like 51.1 °F
N
8.3
Wind Variable Wind from SE
Gusts 11.4 mph

Today
High -- | Low -- °F
--% Chance of Precip.
Yesterday
High -- | Low -- °F
Precip. -- in
Pressure 30.00 in
Visibility -9999.0 miles
Clouds
Dew Point 31.6 °F
Humidity 47%
Rainfall 0.00 in
Snow Depth Not available.
6:36 AM 4:39 PM
First Quarter, 55% visible
METAR KCZZ 071852Z AUTO 19009KT 12/05 A3004 RMK AO1 SLP159 T01220050
Pressure 30.00 in
Visibility -9999.0 miles
Clouds
Dew Point 31.6 °F
Humidity 47%
Rainfall 0.00 in
Snow Depth Not available.
6:36 AM 4:39 PM
First Quarter, 55% visible
METAR KCZZ 071852Z AUTO 19009KT 12/05 A3004 RMK AO1 SLP159 T01220050

10-Day Weather Forecast

Almanac

Astronomy

Dec. 07, 2016 Rise Set
Actual Time
Civil Twilight
Nautical Twilight
Astronomical Twilight
Moon
Length of Visible Light
Length of Day
Tomorrow will be .
, % of the Moon is Illuminated

Today's Extremes

State Highs State Lows

Community

WunderPhotos

Upload Photos

1,956,164 photos uploaded!

WunderBlog® & News

Nearby

Air Quality

  Air Quality AQ Index Pollutant
Not available.

Snow Depth

Station Depth Elevation

Earthquake Activity

City Distance Mag. Time & Date
Minimum magnitude displayed is 2.5.

Coastal Water Temperatures

Place Temperature

Stations

Nearby Weather Stations

Station Location Temp. Windchill Dew Point Humidity Wind Precip. Elev Updated Type
                   

Watches & Warnings

There are currently no watches in effect.